Transavia B738 at Marrakesh on Oct 10th 2017, hard landing

Last Update: October 10, 2017 / 22:46:47 GMT/Zulu time

Bookmark this article
Incident Facts

Date of incident
Oct 10, 2017

Classification
Incident

Flight number
HV-5753

Aircraft Registration
PH-HSK

Aircraft Type
Boeing 737-800

ICAO Type Designator
B738

A Transavia Boeing 737-800, registration PH-HSK performing flight HV-5753 from Amsterdam (Netherlands) to Marrakesh (Morocco), was on final approach to Marrakesh's runway 28 when the crew went around due to gusting winds at 19:41L (18:41Z). The aircraft positioned for another approach to runway 10 this time, however touched down hard at 20:11L (19:11Z). The aircraft rolled out without further incident and taxied to the apron.

The aircraft was unable to depart for the return flight HV-5754 and is currently undergoing a hard landing inspection.

The airline reported the aircraft aborted the first approach due to high winds, then touched down hard requiring a hard landing inspection. The passengers waiting for the return flight were taken to hotels.

Metars:
GMMX 102030Z 11012KT 9999 FEW030 24/07 Q1018 NOSIG=
GMMX 102000Z 10013KT 9999 SCT030 SCT100 24/09 Q1018 RETS NOSIG=
GMMX 101943Z 10014KT 9999 SCT030 FEW033CB SCT100 24/10 Q1018 NOSIG B8=
GMMX 101930Z 08020KT 8000 TS SCT030 FEW033CB SCT100 25/08 Q1017 NOSIG=
GMMX 101900Z VRB23G40KT 8000 TSRA BKN030 FEW033CB SCT100 27/06 Q1017 NOSIG=
GMMX 101830Z 25008KT 210V350 9999 BKN030 FEW033CB SCT100 25/09 Q1019 NOSIG=
GMMX 101800Z 28005KT 250V340 9999 TS BKN030 FEW033CB SCT100 25/07 Q1018 NOSIG=
GMMX 101730Z 34003KT 270V060 9999 TS BKN030 FEW033CB SCT100 26/08 Q1016 NOSIG=
GMMX 101700Z 35008KT 280V040 8000 TSRA BKN030 FEW033CB SCT100 26/07 Q1016 NOSIG=
GMMX 101630Z 35009KT 290V030 9999 TS BKN030 FEW033CB SCT100 28/05 Q1018 NOSIG=
GMMX 101600Z 28020G41KT 220V350 3000 TSRA SCT030 FEW033CB SCT100 27/07 Q1017 NOSIG=
Aircraft Registration Data
Registration mark
PH-HSK
Country of Registration
Netherlands
Date of Registration
H cndcnnjiblf Subscribe to unlock
Airworthyness Category
Legal Basis
Manufacturer
The Boeing Company
Aircraft Model / Type
737-800
ICAO Aircraft Type
B738
Year of Manufacture
Serial Number
Aircraft Address / Mode S Code (HEX)
Maximum Take off Mass (MTOM) [kg]
Engine Count
Engine
AjepqbfmifAfefgkcqcgblbkl bmhhlfiim Subscribe to unlock
Engine Type
Incident Facts

Date of incident
Oct 10, 2017

Classification
Incident

Flight number
HV-5753

Aircraft Registration
PH-HSK

Aircraft Type
Boeing 737-800

ICAO Type Designator
B738

This article is published under license from Avherald.com. © of text by Avherald.com.
Article source

You can read 2 more free articles without a subscription.

Subscribe now and continue reading without any limits!

Are you a subscriber? Login
Subscribe

Read unlimited articles and receive our daily update briefing. Gain better insights into what is happening in commercial aviation safety.

Send tip

Support AeroInside by sending a small tip amount.

Related articles

Newest articles

Subscribe today

Are you researching aviation incidents? Get access to AeroInside Insights, unlimited read access and receive the daily newsletter.

Pick your plan and subscribe

Partner

Blockaviation logo

A new way to document and demonstrate airworthiness compliance and aircraft value. Find out more.

ELITE Logo

ELITE Simulation Solutions is a leading global provider of Flight Simulation Training Devices, IFR training software as well as flight controls and related services. Find out more.

Blue Altitude Logo

Your regulation partner, specialists in aviation safety and compliance; providing training, auditing, and consultancy services. Find out more.

AeroInside Blog
Popular aircraft
Airbus A320
Boeing 737-800
Boeing 737-800 MAX
Popular airlines
American Airlines
United
Delta
Air Canada
Lufthansa
British Airways